createdAt,value
2023-01-27T00:02:02.737Z,36.80
2023-01-27T00:04:32.747Z,41.00
2023-01-27T00:06:59.451Z,36.10
2023-01-27T00:09:33.099Z,42.70
2023-01-27T00:12:32.393Z,38.30
2023-01-27T00:15:03.429Z,42.80
2023-01-27T00:17:30.787Z,42.00
2023-01-27T00:19:57.650Z,44.80
2023-01-27T00:22:44.661Z,34.00
2023-01-27T00:25:11.687Z,46.60
2023-01-27T00:27:38.496Z,40.40
2023-01-27T00:30:06.212Z,42.20
2023-01-27T00:32:52.920Z,43.40
2023-01-27T00:35:19.688Z,39.40
2023-01-27T00:37:46.346Z,42.70
2023-01-27T00:40:15.119Z,45.80
2023-01-27T00:42:42.827Z,36.40
2023-01-27T00:45:28.693Z,51.60
2023-01-27T00:47:55.900Z,50.80
2023-01-27T00:50:23.220Z,37.10
2023-01-27T00:52:51.733Z,44.20
2023-01-27T00:55:19.570Z,43.00
2023-01-27T00:57:46.202Z,45.50
2023-01-27T01:00:17.460Z,45.70
2023-01-27T01:02:44.396Z,51.20
2023-01-27T01:05:11.256Z,45.10
2023-01-27T01:07:38.495Z,46.10
2023-01-27T01:10:13.529Z,46.30
2023-01-27T01:12:40.803Z,51.80
2023-01-27T01:15:07.939Z,40.50
2023-01-27T01:17:34.795Z,45.90
2023-01-27T01:20:01.500Z,48.30
2023-01-27T01:22:28.452Z,42.30
2023-01-27T01:24:55.379Z,44.80
2023-01-27T01:27:22.241Z,46.50
2023-01-27T01:39:06.146Z,46.50
2023-01-27T01:42:22.640Z,46.20
2023-01-27T02:57:06.963Z,52.30
2023-01-27T03:00:51.895Z,52.10
2023-01-27T03:12:36.299Z,55.70
2023-01-27T03:15:46.562Z,51.00
2023-01-27T03:49:33.261Z,43.90
2023-01-27T03:52:24.975Z,50.90
2023-01-27T04:40:02.498Z,52.80
2023-01-27T05:09:08.178Z,47.20
2023-01-27T05:20:33.605Z,59.50
2023-01-27T05:23:34.832Z,59.20
2023-01-27T05:48:29.524Z,69.20
2023-01-27T05:52:18.327Z,59.20
2023-01-27T08:35:52.160Z,51.30
2023-01-27T08:38:20.594Z,54.60
2023-01-27T08:40:49.532Z,53.40
2023-01-27T08:43:18.205Z,57.30
2023-01-27T08:45:47.228Z,54.80
2023-01-27T08:48:16.086Z,53.60
2023-01-27T08:50:45.144Z,52.30
2023-01-27T08:53:13.412Z,47.10
2023-01-27T08:55:50.946Z,52.10
2023-01-27T08:58:20.207Z,46.10
2023-01-27T09:00:48.662Z,45.50
2023-01-27T09:03:20.446Z,30.50
2023-01-27T09:05:48.817Z,32.40
2023-01-27T09:08:17.061Z,40.50
2023-01-27T09:10:45.356Z,37.20
2023-01-27T09:13:13.984Z,43.80
2023-01-27T09:15:43.980Z,45.70
2023-01-27T09:18:12.559Z,41.60
2023-01-27T09:20:46.746Z,42.50
2023-01-27T09:23:20.935Z,42.20
2023-01-27T09:26:08.313Z,39.20
2023-01-27T09:28:36.725Z,40.50
2023-01-27T09:31:09.718Z,49.00
2023-01-27T09:33:40.934Z,54.40
2023-01-27T09:36:12.709Z,53.10
2023-01-27T09:38:51.415Z,67.00
2023-01-27T09:41:41.428Z,59.60
2023-01-27T09:44:38.054Z,57.10
2023-01-27T09:47:27.600Z,48.20
2023-01-27T09:50:15.144Z,46.80
2023-01-27T09:53:08.008Z,50.50
2023-01-27T09:56:24.864Z,48.80
2023-01-27T09:59:05.048Z,68.70
2023-01-27T10:01:43.438Z,39.60
2023-01-27T10:05:02.952Z,48.40
2023-01-27T10:07:57.666Z,45.80
2023-01-27T10:10:42.676Z,36.50
2023-01-27T10:13:35.757Z,44.40
2023-01-27T10:16:09.670Z,57.40
2023-01-27T10:18:52.928Z,57.30
2023-01-27T10:21:43.077Z,108.30
2023-01-27T10:27:59.182Z,40.10
2023-01-27T10:30:38.406Z,47.10
2023-01-27T10:33:30.362Z,44.00
2023-01-27T10:35:59.642Z,48.50
2023-01-27T10:38:53.740Z,41.70
2023-01-27T10:41:28.891Z,50.20
2023-01-27T10:44:18.586Z,50.70
2023-01-27T10:47:21.278Z,54.20
2023-01-27T10:50:03.399Z,51.30
2023-01-27T10:52:43.171Z,36.20
2023-01-27T10:55:44.669Z,42.20
2023-01-27T10:58:34.100Z,51.20
2023-01-27T11:01:20.377Z,38.70
2023-01-27T11:03:59.738Z,31.70
2023-01-27T11:06:59.755Z,41.20
2023-01-27T11:09:30.910Z,36.50
2023-01-27T11:12:02.959Z,38.10
2023-01-27T11:14:52.178Z,36.00
2023-01-27T11:17:32.606Z,38.20
2023-01-27T11:20:38.562Z,36.30
2023-01-27T11:23:10.910Z,33.00
2023-01-27T11:26:24.292Z,36.60
2023-01-27T11:29:06.554Z,31.40
2023-01-27T11:31:39.753Z,32.20
2023-01-27T11:34:34.087Z,32.40
2023-01-27T11:37:19.214Z,37.10
2023-01-27T11:39:47.675Z,24.80
2023-01-27T11:42:16.654Z,35.00
2023-01-27T11:44:45.065Z,37.90
2023-01-27T11:47:29.303Z,35.20
2023-01-27T11:49:57.926Z,34.80
2023-01-27T11:52:29.291Z,32.00
2023-01-27T11:58:52.513Z,36.40
2023-01-27T12:01:29.761Z,30.00
2023-01-27T12:04:17.754Z,29.30
2023-01-27T12:06:50.640Z,29.50
2023-01-27T12:09:41.077Z,27.50
2023-01-27T12:12:15.744Z,25.20
2023-01-27T12:14:55.257Z,38.80
2023-01-27T12:17:38.787Z,30.60
2023-01-27T12:20:32.814Z,54.20
2023-01-27T12:23:07.399Z,39.30
2023-01-27T12:25:48.977Z,38.80
2023-01-27T12:28:24.212Z,36.70
2023-01-27T12:31:16.682Z,51.10
2023-01-27T12:33:57.525Z,39.90
2023-01-27T12:37:08.465Z,32.10
2023-01-27T12:39:58.480Z,37.10
2023-01-27T12:42:54.632Z,40.10
2023-01-27T12:45:27.308Z,40.50
2023-01-27T12:47:57.717Z,37.90
2023-01-27T12:50:28.693Z,34.70
2023-01-27T12:55:35.581Z,36.70
2023-01-27T12:58:04.060Z,39.40
2023-01-27T13:00:35.335Z,46.40
2023-01-27T13:03:07.455Z,43.00
2023-01-27T13:05:38.046Z,51.70
2023-01-27T13:11:02.914Z,43.10
2023-01-27T13:13:37.273Z,43.10
2023-01-27T13:16:15.708Z,36.90
2023-01-27T13:18:43.980Z,42.50
2023-01-27T13:21:16.813Z,44.30
2023-01-27T13:23:46.247Z,28.60
2023-01-27T13:26:37.547Z,28.40
2023-01-27T13:29:27.662Z,46.90
2023-01-27T13:31:59.075Z,41.40
2023-01-27T13:34:47.440Z,54.90
2023-01-27T13:40:18.498Z,33.80
2023-01-27T13:43:03.192Z,38.20
2023-01-27T13:45:45.699Z,29.30
2023-01-27T13:48:40.452Z,40.90
2023-01-27T13:51:10.876Z,38.70
2023-01-27T13:56:18.491Z,42.40
2023-01-27T13:58:55.973Z,38.40
2023-01-27T14:01:26.018Z,32.60
2023-01-27T14:04:13.141Z,33.60
2023-01-27T14:07:06.390Z,50.50
2023-01-27T14:09:41.005Z,39.70
2023-01-27T14:12:14.643Z,35.00
2023-01-27T14:15:21.133Z,31.50
2023-01-27T14:18:21.230Z,41.00
2023-01-27T14:21:39.262Z,36.60
2023-01-27T14:24:24.955Z,38.70
2023-01-27T14:27:13.544Z,29.80
2023-01-27T14:29:51.217Z,29.40
2023-01-27T14:32:26.626Z,32.50
2023-01-27T14:35:10.075Z,32.20
2023-01-27T14:38:07.697Z,33.10
2023-01-27T14:40:58.408Z,35.30
2023-01-27T14:43:34.758Z,32.00
2023-01-27T14:46:19.165Z,36.40
2023-01-27T14:49:19.999Z,38.60
2023-01-27T14:52:30.201Z,43.20
2023-01-27T14:55:04.474Z,42.70
2023-01-27T14:57:48.191Z,35.00
2023-01-27T15:00:49.544Z,39.50
2023-01-27T15:03:52.306Z,28.00
2023-01-27T15:06:35.595Z,37.70
2023-01-27T15:09:07.000Z,33.40
2023-01-27T15:11:54.245Z,32.60
2023-01-27T15:14:34.596Z,34.30
2023-01-27T15:17:37.583Z,31.70
2023-01-27T15:20:35.122Z,35.50
2023-01-27T15:23:20.582Z,38.20
2023-01-27T15:25:54.768Z,34.20
2023-01-27T15:28:27.289Z,39.10
2023-01-27T15:31:11.799Z,34.90
2023-01-27T15:34:05.133Z,39.70
2023-01-27T15:36:37.472Z,47.70
2023-01-27T15:39:09.238Z,37.10
2023-01-27T15:45:00.831Z,41.40
2023-01-27T15:47:32.095Z,38.40
2023-01-27T15:50:19.902Z,40.30
2023-01-27T15:52:48.227Z,38.30
2023-01-27T15:55:33.720Z,40.50
2023-01-27T15:58:05.984Z,40.80
2023-01-27T16:00:48.847Z,42.20
2023-01-27T16:03:36.110Z,40.50
2023-01-27T16:06:30.802Z,42.00
2023-01-27T16:09:06.684Z,41.30
2023-01-27T16:11:35.029Z,44.90
2023-01-27T16:14:25.348Z,49.60
2023-01-27T16:16:54.702Z,49.50
2023-01-27T16:19:25.969Z,48.30
2023-01-27T16:22:00.640Z,52.20
2023-01-27T16:24:29.652Z,38.20
2023-01-27T16:27:19.102Z,41.90
2023-01-27T16:29:49.883Z,47.90
2023-01-27T16:38:02.956Z,53.20
2023-01-27T16:40:31.335Z,52.80
2023-01-27T16:43:18.552Z,40.40
2023-01-27T16:45:48.279Z,39.20
2023-01-27T16:48:36.820Z,31.30
2023-01-27T16:51:21.022Z,47.10
2023-01-27T16:53:50.588Z,44.30
2023-01-27T16:56:27.356Z,42.10
2023-01-27T17:01:59.932Z,44.00
2023-01-27T17:04:29.340Z,44.10
2023-01-27T17:07:13.462Z,34.00
2023-01-27T17:09:51.905Z,41.70
2023-01-27T17:12:33.263Z,37.60
2023-01-27T17:15:09.571Z,42.40
2023-01-27T17:17:39.791Z,38.90
2023-01-27T17:20:09.689Z,58.00
2023-01-27T17:22:39.901Z,39.40
2023-01-27T17:25:15.924Z,39.90
2023-01-27T17:27:45.077Z,40.50
2023-01-27T17:30:24.392Z,43.10
2023-01-27T17:35:43.608Z,48.50
2023-01-27T17:38:21.377Z,36.80
2023-01-27T17:40:53.851Z,42.30
2023-01-27T17:43:29.325Z,49.60
2023-01-27T17:46:36.961Z,50.20
2023-01-27T17:49:16.048Z,45.80
2023-01-27T17:51:46.653Z,40.80
2023-01-27T17:57:22.930Z,40.30
2023-01-27T18:00:01.136Z,43.60
2023-01-27T18:02:50.881Z,34.70
2023-01-27T18:05:21.262Z,39.50
2023-01-27T18:07:49.426Z,41.60
2023-01-27T18:10:39.984Z,36.00
2023-01-27T18:13:21.221Z,37.60
2023-01-27T18:15:58.055Z,37.60
2023-01-27T18:18:32.313Z,46.20
2023-01-27T18:21:04.082Z,43.90
2023-01-27T18:23:46.760Z,41.20
2023-01-27T18:26:27.955Z,46.80
2023-01-27T18:29:03.900Z,34.10
2023-01-27T18:31:37.438Z,40.30
2023-01-27T18:34:05.753Z,39.80
2023-01-27T18:36:35.882Z,44.10
2023-01-27T18:42:31.122Z,40.70
2023-01-27T18:44:59.216Z,38.10
2023-01-27T18:47:29.367Z,35.80
2023-01-27T18:50:27.996Z,40.30
2023-01-27T18:52:56.065Z,35.20
2023-01-27T18:55:26.559Z,33.20
2023-01-27T18:57:56.850Z,36.30
2023-01-27T19:00:53.703Z,45.70
2023-01-27T19:03:26.823Z,38.40
2023-01-27T19:05:55.228Z,34.90
2023-01-27T19:08:26.248Z,33.10
2023-01-27T19:13:44.538Z,43.10
2023-01-27T19:16:14.570Z,38.10
2023-01-27T19:18:42.741Z,38.60
2023-01-27T19:21:15.418Z,40.60
2023-01-27T19:23:45.059Z,37.40
2023-01-27T19:29:03.835Z,39.20
2023-01-27T19:31:32.219Z,39.00
2023-01-27T19:34:00.717Z,37.30
2023-01-27T19:36:37.004Z,44.80
2023-01-27T19:39:08.287Z,38.10
2023-01-27T19:41:36.722Z,36.30
2023-01-27T19:44:05.451Z,36.00
2023-01-27T19:46:34.968Z,39.60
2023-01-27T19:49:03.197Z,49.30
2023-01-27T19:51:32.584Z,38.60
2023-01-27T19:54:05.699Z,49.60
2023-01-27T19:56:34.435Z,53.70
2023-01-27T19:59:02.626Z,53.60
2023-01-27T20:01:34.238Z,44.60
2023-01-27T20:04:02.604Z,44.00
2023-01-27T20:06:31.323Z,52.10
2023-01-27T20:09:00.014Z,57.30
2023-01-27T20:14:19.115Z,48.10
2023-01-27T20:16:47.491Z,44.60
2023-01-27T20:19:16.479Z,47.60
2023-01-27T20:21:45.899Z,49.10
2023-01-27T20:24:18.317Z,49.10
2023-01-27T20:26:46.843Z,44.10
2023-01-27T20:29:15.801Z,51.10
2023-01-27T20:31:45.350Z,50.30
2023-01-27T20:34:16.687Z,41.60
2023-01-27T20:36:46.224Z,39.50
2023-01-27T20:39:14.558Z,45.70
2023-01-27T20:49:27.747Z,54.80
2023-01-27T20:51:57.017Z,46.40
2023-01-27T20:54:25.349Z,47.50
2023-01-27T20:56:53.721Z,51.20
2023-01-27T20:59:21.935Z,62.60
2023-01-27T21:01:50.355Z,68.40
2023-01-27T21:04:21.808Z,55.20
2023-01-27T21:06:50.031Z,56.40
2023-01-27T21:09:18.568Z,64.40
2023-01-27T21:11:46.881Z,69.50
2023-01-27T21:14:15.926Z,69.50
2023-01-27T21:16:44.243Z,76.80
2023-01-27T21:19:12.811Z,68.10
2023-01-27T21:21:41.608Z,64.80
2023-01-27T21:24:10.366Z,71.30
2023-01-27T21:26:38.545Z,70.70
2023-01-27T21:29:06.821Z,64.00
2023-01-27T21:31:52.731Z,72.60
2023-01-27T21:34:21.942Z,76.80
2023-01-27T21:36:50.190Z,71.20
2023-01-27T21:39:18.536Z,76.40
2023-01-27T21:41:52.898Z,69.70
2023-01-27T21:44:49.220Z,70.10
2023-01-27T21:47:18.509Z,76.30
2023-01-27T21:50:03.035Z,86.80
2023-01-27T21:52:35.333Z,74.50
2023-01-27T21:55:05.046Z,89.40
2023-01-27T21:57:33.730Z,81.30
2023-01-27T22:00:02.731Z,78.40
2023-01-27T22:02:41.454Z,81.00
2023-01-27T22:05:10.792Z,84.50
2023-01-27T22:07:40.679Z,76.30
2023-01-27T22:10:27.398Z,76.80
2023-01-27T22:12:59.744Z,77.30
2023-01-27T22:15:33.955Z,104.60
2023-01-27T22:18:02.844Z,91.10
2023-01-27T22:20:31.854Z,73.80
2023-01-27T22:23:00.114Z,77.30
2023-01-27T22:25:29.832Z,78.80
2023-01-27T22:27:58.219Z,77.60
2023-01-27T22:30:26.407Z,74.80
2023-01-27T22:32:54.828Z,68.00
2023-01-27T22:35:24.099Z,75.70
2023-01-27T22:37:55.436Z,60.60
2023-01-27T22:40:24.487Z,69.70
2023-01-27T22:42:52.928Z,82.80
2023-01-27T22:45:21.145Z,82.30
2023-01-27T22:47:50.037Z,78.20
2023-01-27T22:50:19.230Z,78.50
2023-01-27T22:52:47.507Z,80.90
2023-01-27T22:55:16.047Z,71.80
2023-01-27T22:57:45.311Z,67.80
2023-01-27T23:00:14.280Z,65.30
2023-01-27T23:02:42.437Z,66.10
2023-01-27T23:05:15.633Z,66.40
2023-01-27T23:07:44.309Z,63.30
2023-01-27T23:12:43.463Z,56.50
2023-01-27T23:15:12.325Z,70.50
2023-01-27T23:17:41.120Z,68.00
2023-01-27T23:20:10.606Z,60.60
2023-01-27T23:22:39.817Z,70.00
2023-01-27T23:25:12.027Z,66.00
2023-01-27T23:27:41.391Z,71.30
2023-01-27T23:30:11.106Z,70.40
2023-01-27T23:35:09.643Z,61.20
2023-01-27T23:37:37.975Z,67.60
2023-01-27T23:40:07.874Z,63.70
2023-01-27T23:42:36.309Z,66.30
2023-01-27T23:45:05.255Z,56.60
2023-01-27T23:47:33.713Z,58.60
2023-01-27T23:50:02.025Z,61.90
2023-01-27T23:52:31.709Z,55.00
2023-01-27T23:55:00.248Z,53.90
2023-01-27T23:57:28.584Z,44.30
2023-01-27T23:59:56.937Z,61.30
